createdAt,value
2023-05-24T00:00:53.077Z,65.87
2023-05-24T00:03:21.612Z,66.27
2023-05-24T00:05:49.328Z,65.71
2023-05-24T00:08:16.918Z,65.63
2023-05-24T00:10:44.615Z,65.61
2023-05-24T00:13:15.186Z,65.70
2023-05-24T00:15:42.706Z,65.88
2023-05-24T00:18:10.328Z,65.40
2023-05-24T00:20:37.947Z,66.06
2023-05-24T00:23:05.625Z,66.15
2023-05-24T00:25:33.124Z,66.47
2023-05-24T00:28:00.623Z,65.85
2023-05-24T00:30:29.582Z,66.44
2023-05-24T00:32:57.228Z,66.10
2023-05-24T00:35:24.760Z,66.59
2023-05-24T00:37:52.256Z,67.01
2023-05-24T00:40:19.806Z,67.30
2023-05-24T00:42:47.305Z,66.80
2023-05-24T00:45:15.123Z,66.75
2023-05-24T00:47:44.112Z,67.00
2023-05-24T00:50:13.089Z,66.89
2023-05-24T00:52:41.924Z,67.62
2023-05-24T00:55:10.600Z,67.75
2023-05-24T00:57:38.097Z,67.46
2023-05-24T01:00:07.990Z,66.94
2023-05-24T01:02:35.617Z,66.47
2023-05-24T01:05:05.803Z,66.89
2023-05-24T01:07:40.372Z,67.22
2023-05-24T01:10:13.078Z,67.69
2023-05-24T01:12:49.488Z,67.72
2023-05-24T01:15:23.426Z,67.32
2023-05-24T01:17:55.817Z,67.11
2023-05-24T01:20:25.169Z,67.09
2023-05-24T01:23:07.219Z,67.38
2023-05-24T01:25:47.440Z,68.80
2023-05-24T01:28:17.611Z,66.94
2023-05-24T01:30:45.660Z,67.78
2023-05-24T01:33:13.337Z,67.46
2023-05-24T01:35:42.469Z,67.42
2023-05-24T01:38:10.913Z,65.83
2023-05-24T01:40:38.996Z,66.67
2023-05-24T01:43:15.707Z,65.75
2023-05-24T01:45:51.854Z,66.01
2023-05-24T01:48:22.129Z,65.27
2023-05-24T01:50:51.389Z,64.89
2023-05-24T01:53:19.821Z,64.77
2023-05-24T01:55:49.473Z,65.25
2023-05-24T01:58:18.174Z,65.54
2023-05-24T02:00:47.386Z,65.55
2023-05-24T02:03:15.710Z,65.29
2023-05-24T02:05:44.293Z,64.78
2023-05-24T02:08:12.759Z,65.29
2023-05-24T02:10:40.693Z,65.69
2023-05-24T02:13:08.670Z,65.14
2023-05-24T02:15:36.536Z,64.89
2023-05-24T02:18:07.982Z,65.63
2023-05-24T02:20:37.458Z,66.47
2023-05-24T02:23:05.318Z,66.25
2023-05-24T02:25:32.967Z,67.05
2023-05-24T02:28:00.582Z,66.50
2023-05-24T02:30:28.301Z,67.31
2023-05-24T02:32:56.130Z,67.88
2023-05-24T02:35:25.016Z,67.54
2023-05-24T02:37:52.548Z,68.09
2023-05-24T02:40:20.067Z,67.33
2023-05-24T02:42:47.614Z,67.89
2023-05-24T02:45:15.105Z,68.70
2023-05-24T02:47:42.716Z,68.11
2023-05-24T02:50:11.449Z,68.65
2023-05-24T02:52:40.378Z,68.93
2023-05-24T02:55:08.670Z,68.96
2023-05-24T02:57:37.864Z,68.29
2023-05-24T03:00:08.215Z,68.89
2023-05-24T03:02:38.520Z,68.77
2023-05-24T03:05:06.992Z,68.45
2023-05-24T03:07:34.507Z,69.18
2023-05-24T03:10:03.337Z,68.99
2023-05-24T03:12:30.854Z,69.14
2023-05-24T03:14:58.407Z,69.25
2023-05-24T03:17:26.447Z,69.00
2023-05-24T03:19:54.045Z,68.35
2023-05-24T03:22:21.571Z,69.12
2023-05-24T03:24:49.086Z,69.52
2023-05-24T03:27:17.971Z,69.65
2023-05-24T03:29:45.487Z,69.67
2023-05-24T03:32:13.004Z,70.18
2023-05-24T03:34:40.529Z,69.96
2023-05-24T03:37:09.834Z,69.82
2023-05-24T03:39:37.355Z,69.07
2023-05-24T03:42:05.279Z,69.48
2023-05-24T03:44:34.085Z,68.29
2023-05-24T03:47:01.604Z,69.19
2023-05-24T03:49:29.107Z,69.87
2023-05-24T03:51:56.649Z,68.96
2023-05-24T03:54:24.156Z,69.74
2023-05-24T03:56:53.197Z,69.20
2023-05-24T03:59:21.762Z,68.70
2023-05-24T04:01:50.633Z,69.04
2023-05-24T04:04:18.258Z,68.98
2023-05-24T04:06:45.895Z,68.88
2023-05-24T04:09:13.411Z,68.42
2023-05-24T04:11:40.942Z,68.59
2023-05-24T04:14:08.804Z,68.47
2023-05-24T04:16:36.425Z,68.73
2023-05-24T04:19:06.741Z,69.12
2023-05-24T04:21:34.323Z,68.89
2023-05-24T04:24:03.382Z,69.13
2023-05-24T04:26:31.291Z,68.94
2023-05-24T04:28:58.929Z,69.30
2023-05-24T04:31:29.357Z,68.50
2023-05-24T04:33:57.317Z,68.05
2023-05-24T04:36:26.355Z,68.48
2023-05-24T04:38:56.120Z,68.38
2023-05-24T04:41:24.322Z,68.95
2023-05-24T04:43:51.886Z,68.36
2023-05-24T04:46:19.528Z,69.12
2023-05-24T04:48:48.202Z,69.13
2023-05-24T04:51:15.720Z,68.51
2023-05-24T04:53:44.572Z,69.37
2023-05-24T04:56:14.873Z,68.99
2023-05-24T04:58:42.532Z,68.99
2023-05-24T05:01:10.040Z,68.51
2023-05-24T05:03:37.766Z,68.73
2023-05-24T05:06:05.668Z,68.34
2023-05-24T05:08:33.392Z,68.80
2023-05-24T05:11:02.789Z,68.38
2023-05-24T05:13:30.333Z,67.65
2023-05-24T05:16:05.608Z,68.59
2023-05-24T05:18:33.859Z,67.80
2023-05-24T05:21:01.376Z,67.28
2023-05-24T05:23:28.843Z,67.25
2023-05-24T05:25:56.361Z,66.97
2023-05-24T05:28:25.227Z,67.05
2023-05-24T05:30:52.724Z,66.20
2023-05-24T05:33:20.355Z,66.17
2023-05-24T05:35:47.891Z,65.75
2023-05-24T05:38:15.504Z,65.87
2023-05-24T05:40:43.264Z,65.56
2023-05-24T05:43:11.169Z,65.77
2023-05-24T05:45:40.296Z,65.05
2023-05-24T05:48:07.973Z,64.76
2023-05-24T05:50:35.624Z,64.62
2023-05-24T05:53:03.597Z,65.16
2023-05-24T05:55:31.128Z,65.71
2023-05-24T05:57:58.887Z,64.91
2023-05-24T06:00:26.839Z,64.88
2023-05-24T06:02:55.906Z,64.68
2023-05-24T06:05:23.531Z,62.79
2023-05-24T06:07:51.056Z,63.68
2023-05-24T06:10:18.678Z,63.05
2023-05-24T06:12:46.214Z,63.14
2023-05-24T06:15:14.140Z,62.84
2023-05-24T06:17:43.769Z,62.81
2023-05-24T06:20:15.836Z,62.46
2023-05-24T06:22:43.761Z,62.38
2023-05-24T06:25:15.428Z,62.85
2023-05-24T06:27:42.958Z,61.67
2023-05-24T06:30:11.269Z,62.82
2023-05-24T06:32:38.946Z,62.77
2023-05-24T06:35:07.852Z,62.73
2023-05-24T06:37:38.508Z,62.94
2023-05-24T06:40:08.867Z,62.13
2023-05-24T06:42:36.640Z,62.28
2023-05-24T06:45:04.712Z,62.93
2023-05-24T06:47:32.378Z,62.75
2023-05-24T06:50:00.888Z,61.26
2023-05-24T06:52:28.417Z,61.17
2023-05-24T06:54:57.285Z,61.45
2023-05-24T06:57:25.228Z,60.93
2023-05-24T06:59:52.859Z,61.67
2023-05-24T07:02:24.104Z,61.42
2023-05-24T07:04:51.807Z,61.70
2023-05-24T07:07:19.853Z,61.24
2023-05-24T07:09:47.760Z,60.93
2023-05-24T07:12:16.663Z,58.87
2023-05-24T07:14:44.190Z,58.65
2023-05-24T07:17:11.797Z,58.63
2023-05-24T07:19:39.383Z,58.40
2023-05-24T07:22:07.302Z,59.96
2023-05-24T07:24:34.806Z,59.60
2023-05-24T07:27:02.365Z,60.28
2023-05-24T07:29:31.373Z,59.86
2023-05-24T07:31:59.058Z,58.56
2023-05-24T07:34:27.986Z,59.56
2023-05-24T07:36:55.728Z,59.44
2023-05-24T07:39:23.335Z,59.14
2023-05-24T07:41:50.935Z,59.20
2023-05-24T07:44:18.446Z,58.43
2023-05-24T07:46:47.377Z,59.23
2023-05-24T07:49:14.960Z,58.64
2023-05-24T07:51:42.650Z,58.46
2023-05-24T07:54:10.411Z,57.75
2023-05-24T07:56:37.986Z,58.11
2023-05-24T07:59:05.549Z,57.75
2023-05-24T08:01:34.444Z,57.53
2023-05-24T08:04:04.174Z,57.78
2023-05-24T08:06:32.753Z,57.09
2023-05-24T08:09:00.365Z,55.92
2023-05-24T08:11:27.893Z,56.07
2023-05-24T08:13:55.437Z,55.60
2023-05-24T08:16:22.980Z,55.36
2023-05-24T08:18:52.545Z,55.30
2023-05-24T08:21:23.464Z,55.61
2023-05-24T08:23:51.020Z,55.20
2023-05-24T08:26:19.270Z,56.02
2023-05-24T08:28:47.214Z,56.68
2023-05-24T08:31:14.861Z,56.22
2023-05-24T08:33:43.040Z,56.12
2023-05-24T08:36:10.818Z,56.57
2023-05-24T08:38:39.654Z,56.68
2023-05-24T08:41:08.461Z,56.68
2023-05-24T08:43:36.148Z,56.82
2023-05-24T08:46:04.912Z,56.93
2023-05-24T08:48:32.709Z,57.10
2023-05-24T08:51:01.032Z,57.68
2023-05-24T08:53:28.555Z,57.58
2023-05-24T08:55:57.539Z,56.15
2023-05-24T08:58:25.449Z,56.78
2023-05-24T09:00:53.126Z,56.77
2023-05-24T09:03:20.890Z,55.54
2023-05-24T09:05:48.766Z,54.97
2023-05-24T09:08:18.323Z,54.32
2023-05-24T09:10:54.935Z,55.37
2023-05-24T09:13:25.586Z,53.94
2023-05-24T09:15:53.874Z,54.59
2023-05-24T09:18:21.870Z,54.32
2023-05-24T09:20:49.559Z,53.68
2023-05-24T09:23:17.562Z,53.20
2023-05-24T09:25:48.211Z,54.07
2023-05-24T09:28:18.012Z,52.90
2023-05-24T09:30:53.263Z,53.51
2023-05-24T09:33:23.825Z,53.79
2023-05-24T09:35:51.410Z,52.61
2023-05-24T09:38:19.667Z,52.79
2023-05-24T09:40:47.275Z,52.52
2023-05-24T09:43:14.798Z,52.79
2023-05-24T09:45:44.330Z,53.03
2023-05-24T09:48:13.972Z,52.34
2023-05-24T09:50:42.072Z,52.51
2023-05-24T09:53:09.771Z,52.94
2023-05-24T09:55:37.802Z,53.46
2023-05-24T09:58:08.190Z,53.84
2023-05-24T10:00:36.725Z,53.83
2023-05-24T10:03:06.723Z,52.68
2023-05-24T10:05:36.988Z,53.33
2023-05-24T10:08:05.618Z,52.43
2023-05-24T10:10:34.053Z,50.64
2023-05-24T10:13:02.432Z,50.33
2023-05-24T10:15:30.781Z,51.04
2023-05-24T10:18:00.029Z,51.57
2023-05-24T10:20:28.440Z,51.33
2023-05-24T10:23:01.467Z,50.08
2023-05-24T10:25:30.075Z,50.43
2023-05-24T10:28:01.772Z,49.59
2023-05-24T10:30:34.224Z,49.97
2023-05-24T10:33:02.696Z,49.10
2023-05-24T10:35:31.094Z,48.96
2023-05-24T10:38:00.160Z,48.06
2023-05-24T10:40:27.778Z,48.56
2023-05-24T10:42:55.347Z,49.46
2023-05-24T10:45:35.563Z,48.72
2023-05-24T10:48:10.285Z,48.07
2023-05-24T10:50:37.868Z,47.65
2023-05-24T10:53:16.847Z,47.35
2023-05-24T10:55:53.537Z,46.62
2023-05-24T10:58:21.138Z,46.83
2023-05-24T11:00:53.306Z,47.23
2023-05-24T11:03:24.542Z,47.59
2023-05-24T11:05:54.626Z,47.20
2023-05-24T11:08:26.518Z,47.08
2023-05-24T11:11:19.115Z,46.36
2023-05-24T11:13:56.883Z,46.28
2023-05-24T11:16:34.896Z,47.40
2023-05-24T11:19:12.983Z,46.96
2023-05-24T11:21:40.889Z,47.54
2023-05-24T11:24:09.843Z,46.83
2023-05-24T11:26:37.410Z,46.29
2023-05-24T11:29:06.182Z,45.99
2023-05-24T11:31:35.654Z,46.26
2023-05-24T11:34:05.460Z,46.70
2023-05-24T11:36:34.066Z,46.40
2023-05-24T11:39:01.653Z,46.69
2023-05-24T11:41:30.749Z,46.39
2023-05-24T11:43:58.992Z,45.66
2023-05-24T11:46:27.934Z,46.72
2023-05-24T11:48:57.780Z,46.33
2023-05-24T11:51:28.329Z,45.00
2023-05-24T11:53:56.902Z,45.64
2023-05-24T11:56:24.831Z,43.73
2023-05-24T11:58:58.099Z,44.47
2023-05-24T12:01:27.234Z,45.17
2023-05-24T12:03:55.191Z,45.06
2023-05-24T12:06:23.064Z,45.08
2023-05-24T12:08:50.736Z,45.10
2023-05-24T12:11:18.401Z,44.12
2023-05-24T12:13:45.958Z,44.39
2023-05-24T12:16:15.370Z,44.17
2023-05-24T12:18:54.941Z,44.52
2023-05-24T12:21:33.657Z,43.52
2023-05-24T12:24:09.512Z,44.08
2023-05-24T12:26:38.044Z,43.02
2023-05-24T12:29:06.853Z,42.91
2023-05-24T12:31:35.975Z,42.40
2023-05-24T12:34:04.973Z,43.63
2023-05-24T12:36:32.457Z,43.69
2023-05-24T12:39:00.383Z,45.64
2023-05-24T12:41:29.794Z,44.69
2023-05-24T12:43:57.300Z,44.14
2023-05-24T12:46:24.918Z,44.46
2023-05-24T12:48:53.812Z,44.27
2023-05-24T12:51:21.316Z,43.56
2023-05-24T12:53:48.805Z,43.74
2023-05-24T12:56:16.353Z,43.74
2023-05-24T12:58:43.875Z,43.45
2023-05-24T13:01:12.350Z,43.21
2023-05-24T13:03:40.397Z,43.58
2023-05-24T13:06:09.687Z,43.50
2023-05-24T13:08:40.049Z,43.42
2023-05-24T13:11:08.355Z,43.13
2023-05-24T13:13:35.977Z,42.39
2023-05-24T13:16:05.510Z,43.22
2023-05-24T13:18:33.055Z,43.49
2023-05-24T13:21:00.988Z,44.09
2023-05-24T13:23:29.926Z,43.41
2023-05-24T13:25:57.466Z,44.04
2023-05-24T13:28:24.968Z,43.35
2023-05-24T13:30:52.573Z,42.54
2023-05-24T13:33:20.340Z,42.97
2023-05-24T13:35:47.861Z,41.74
2023-05-24T13:38:15.447Z,42.78
2023-05-24T13:40:45.761Z,42.83
2023-05-24T13:43:13.532Z,42.45
2023-05-24T13:45:41.018Z,43.25
2023-05-24T13:48:08.660Z,42.70
2023-05-24T13:50:37.658Z,43.47
2023-05-24T13:53:05.768Z,44.09
2023-05-24T13:55:35.413Z,43.47
2023-05-24T13:58:04.949Z,42.87
2023-05-24T14:00:33.176Z,43.57
2023-05-24T14:03:00.994Z,43.53
2023-05-24T14:05:30.394Z,43.57
2023-05-24T14:08:00.275Z,43.73
2023-05-24T14:10:27.901Z,43.21
2023-05-24T14:13:12.897Z,43.74
2023-05-24T14:15:46.657Z,43.85
2023-05-24T14:18:15.385Z,44.08
2023-05-24T14:20:43.336Z,43.57
2023-05-24T14:23:11.143Z,42.06
2023-05-24T14:25:38.704Z,42.53
2023-05-24T14:28:08.281Z,42.39
2023-05-24T14:30:37.548Z,41.95
2023-05-24T14:33:08.088Z,42.43
2023-05-24T14:35:39.427Z,42.20
2023-05-24T14:38:08.599Z,41.23
2023-05-24T14:40:37.123Z,42.08
2023-05-24T14:43:05.409Z,42.02
2023-05-24T14:45:33.091Z,42.51
2023-05-24T14:48:00.951Z,42.45
2023-05-24T14:50:29.916Z,42.41
2023-05-24T14:52:57.660Z,42.13
2023-05-24T14:55:25.188Z,42.05
2023-05-24T14:57:52.734Z,41.80
2023-05-24T15:00:22.769Z,42.33
2023-05-24T15:02:51.672Z,40.96
2023-05-24T15:05:19.235Z,41.30
2023-05-24T15:07:48.099Z,40.18
2023-05-24T15:10:15.636Z,40.21
2023-05-24T15:12:43.171Z,40.43
2023-05-24T15:15:11.424Z,41.14
2023-05-24T15:17:38.971Z,41.17
2023-05-24T15:20:08.070Z,41.25
2023-05-24T15:22:35.780Z,40.28
2023-05-24T15:25:05.084Z,39.48
2023-05-24T15:27:32.584Z,40.07
2023-05-24T15:30:00.186Z,40.42
2023-05-24T15:32:27.760Z,39.07
2023-05-24T15:34:55.313Z,38.65
2023-05-24T15:37:22.816Z,38.34
2023-05-24T15:39:52.376Z,38.51
2023-05-24T15:42:21.699Z,37.87
2023-05-24T15:44:49.277Z,37.96
2023-05-24T15:47:17.325Z,38.29
2023-05-24T15:49:45.434Z,38.30
2023-05-24T15:52:12.924Z,37.90
2023-05-24T15:54:40.713Z,37.50
2023-05-24T15:57:08.218Z,37.58
2023-05-24T15:59:38.516Z,37.96
2023-05-24T16:02:06.844Z,38.17
2023-05-24T16:04:34.484Z,37.50
2023-05-24T16:07:02.062Z,37.89
2023-05-24T16:09:29.682Z,38.13
2023-05-24T16:11:57.180Z,38.09
2023-05-24T16:14:24.748Z,38.22
2023-05-24T16:16:54.943Z,39.13
2023-05-24T16:19:23.618Z,37.65
2023-05-24T16:21:51.448Z,37.87
2023-05-24T16:24:18.953Z,38.58
2023-05-24T16:26:46.487Z,38.77
2023-05-24T16:29:15.065Z,39.07
2023-05-24T16:31:42.637Z,38.44
2023-05-24T16:34:11.567Z,39.26
2023-05-24T16:36:39.104Z,38.65
2023-05-24T16:39:06.633Z,38.74
2023-05-24T16:41:37.516Z,38.76
2023-05-24T16:44:05.356Z,38.55
2023-05-24T16:46:36.526Z,38.82
2023-05-24T16:49:04.410Z,38.43
2023-05-24T16:51:33.261Z,37.39
2023-05-24T16:54:00.866Z,37.05
2023-05-24T16:56:28.494Z,36.48
2023-05-24T16:58:56.142Z,36.50
2023-05-24T17:01:23.846Z,37.28
2023-05-24T17:03:51.730Z,37.67
2023-05-24T17:06:19.272Z,37.90
2023-05-24T17:08:48.348Z,38.55
2023-05-24T17:11:17.008Z,39.39
2023-05-24T17:13:45.681Z,38.79
2023-05-24T17:16:13.996Z,38.79
2023-05-24T17:18:41.655Z,38.90
2023-05-24T17:21:09.434Z,38.49
2023-05-24T17:23:37.582Z,38.85
2023-05-24T17:26:07.952Z,38.13
2023-05-24T17:28:36.597Z,38.82
2023-05-24T17:31:04.386Z,38.37
2023-05-24T17:33:33.001Z,38.62
2023-05-24T17:36:02.694Z,39.08
2023-05-24T17:38:32.875Z,39.07
2023-05-24T17:41:00.504Z,39.97
2023-05-24T17:43:31.825Z,39.97
2023-05-24T17:46:03.822Z,40.36
2023-05-24T17:48:32.249Z,40.47
2023-05-24T17:51:00.817Z,41.15
2023-05-24T17:53:31.952Z,40.35
2023-05-24T17:56:00.553Z,40.35
2023-05-24T17:58:30.831Z,38.80
2023-05-24T18:00:58.592Z,39.01
2023-05-24T18:03:26.222Z,39.79
2023-05-24T18:05:53.740Z,40.16
2023-05-24T18:08:21.312Z,40.40
2023-05-24T18:10:49.038Z,41.17
2023-05-24T18:13:16.713Z,41.12
2023-05-24T18:15:45.843Z,41.80
2023-05-24T18:18:13.642Z,42.46
2023-05-24T18:20:41.327Z,42.64
2023-05-24T18:23:08.921Z,43.10
2023-05-24T18:25:36.674Z,43.63
2023-05-24T18:28:04.241Z,43.67
2023-05-24T18:30:31.759Z,43.83
2023-05-24T18:33:05.543Z,44.32
2023-05-24T18:35:35.699Z,44.08
2023-05-24T18:38:03.348Z,44.73
2023-05-24T18:40:31.157Z,44.56
2023-05-24T18:42:58.691Z,44.18
2023-05-24T18:45:26.281Z,44.52
2023-05-24T18:47:54.199Z,44.30
2023-05-24T18:50:23.626Z,45.15
2023-05-24T18:52:51.392Z,44.88
2023-05-24T18:55:18.981Z,45.42
2023-05-24T18:57:46.541Z,45.56
2023-05-24T19:00:14.741Z,46.63
2023-05-24T19:02:42.408Z,47.24
2023-05-24T19:05:10.199Z,47.00
2023-05-24T19:07:39.165Z,47.33
2023-05-24T19:10:08.161Z,47.85
2023-05-24T19:12:35.708Z,48.06
2023-05-24T19:15:03.285Z,48.50
2023-05-24T19:17:30.936Z,49.13
2023-05-24T19:19:58.582Z,49.18
2023-05-24T19:22:27.672Z,49.84
2023-05-24T19:24:57.103Z,50.13
2023-05-24T19:27:25.343Z,50.32
2023-05-24T19:29:52.857Z,50.98
2023-05-24T19:32:21.336Z,51.51
2023-05-24T19:34:48.974Z,51.85
2023-05-24T19:37:16.539Z,51.99
2023-05-24T19:39:44.275Z,52.51
2023-05-24T19:42:13.271Z,52.88
2023-05-24T19:44:40.858Z,53.11
2023-05-24T19:47:08.392Z,53.28
2023-05-24T19:49:35.928Z,53.98
2023-05-24T19:52:03.425Z,54.13
2023-05-24T19:54:31.117Z,54.20
2023-05-24T19:57:00.767Z,54.38
2023-05-24T19:59:29.681Z,54.86
2023-05-24T20:01:57.495Z,54.80
2023-05-24T20:04:25.263Z,54.96
2023-05-24T20:06:54.109Z,55.32
2023-05-24T20:09:21.659Z,55.48
2023-05-24T20:11:49.197Z,55.70
2023-05-24T20:14:17.978Z,55.83
2023-05-24T20:16:46.973Z,56.07
2023-05-24T20:19:14.501Z,56.27
2023-05-24T20:21:41.999Z,56.30
2023-05-24T20:24:09.704Z,56.47
2023-05-24T20:26:37.629Z,56.81
2023-05-24T20:29:05.186Z,57.04
2023-05-24T20:31:32.928Z,56.83
2023-05-24T20:34:01.959Z,57.04
2023-05-24T20:36:29.495Z,57.12
2023-05-24T20:38:57.181Z,57.33
2023-05-24T20:41:24.796Z,57.50
2023-05-24T20:43:52.317Z,57.72
2023-05-24T20:46:19.988Z,57.95
2023-05-24T20:48:47.558Z,57.84
2023-05-24T20:51:16.831Z,58.14
2023-05-24T20:53:45.575Z,58.17
2023-05-24T20:56:13.253Z,58.46
2023-05-24T20:58:41.450Z,58.59
2023-05-24T21:01:09.225Z,58.30
2023-05-24T21:03:36.828Z,58.62
2023-05-24T21:06:04.437Z,59.52
2023-05-24T21:08:33.283Z,59.62
2023-05-24T21:11:01.029Z,59.69
2023-05-24T21:13:32.537Z,59.73
2023-05-24T21:16:00.039Z,59.92
2023-05-24T21:18:27.585Z,59.85
2023-05-24T21:20:55.275Z,60.04
2023-05-24T21:23:22.819Z,60.39
2023-05-24T21:25:51.711Z,60.21
2023-05-24T21:28:19.224Z,60.34
2023-05-24T21:30:46.847Z,60.63
2023-05-24T21:33:14.371Z,60.84
2023-05-24T21:35:42.148Z,61.06
2023-05-24T21:38:09.768Z,61.39
2023-05-24T21:40:37.257Z,61.21
2023-05-24T21:43:09.697Z,61.36
2023-05-24T21:45:37.222Z,61.67
2023-05-24T21:48:05.035Z,61.74
2023-05-24T21:50:32.688Z,61.79
2023-05-24T21:53:00.265Z,61.84
2023-05-24T21:55:29.077Z,61.69
2023-05-24T21:57:56.698Z,62.71
2023-05-24T22:00:26.847Z,63.21
2023-05-24T22:02:54.555Z,62.83
2023-05-24T22:05:22.137Z,62.03
2023-05-24T22:07:49.665Z,62.69
2023-05-24T22:10:17.407Z,62.62
2023-05-24T22:12:45.067Z,62.62
2023-05-24T22:15:12.846Z,63.09
2023-05-24T22:17:41.869Z,63.01
2023-05-24T22:20:10.606Z,63.32
2023-05-24T22:22:40.162Z,62.97
2023-05-24T22:25:09.236Z,63.35
2023-05-24T22:27:36.999Z,63.53
2023-05-24T22:30:04.870Z,63.17
2023-05-24T22:32:32.447Z,63.98
2023-05-24T22:35:01.420Z,63.46
2023-05-24T22:37:28.984Z,64.39
2023-05-24T22:39:56.549Z,64.58
2023-05-24T22:42:24.073Z,64.03
2023-05-24T22:44:51.655Z,64.08
2023-05-24T22:47:21.984Z,64.95
2023-05-24T22:49:53.861Z,65.49
2023-05-24T22:52:24.364Z,65.78
2023-05-24T22:54:52.328Z,66.27
2023-05-24T22:57:21.608Z,66.28
2023-05-24T22:59:49.339Z,65.85
2023-05-24T23:02:16.895Z,66.60
2023-05-24T23:04:46.229Z,67.03
2023-05-24T23:07:15.361Z,67.84
2023-05-24T23:09:44.445Z,67.79
2023-05-24T23:12:11.991Z,67.74
2023-05-24T23:14:41.419Z,67.99
2023-05-24T23:17:13.380Z,68.00
2023-05-24T23:19:42.318Z,69.09
2023-05-24T23:22:11.717Z,68.82
2023-05-24T23:24:39.278Z,69.48
2023-05-24T23:27:08.881Z,70.01
2023-05-24T23:29:36.527Z,71.03
2023-05-24T23:32:04.367Z,70.85
2023-05-24T23:34:33.752Z,71.12
2023-05-24T23:37:01.454Z,71.41
2023-05-24T23:39:29.018Z,72.09
2023-05-24T23:41:58.815Z,71.96
2023-05-24T23:44:27.758Z,72.51
2023-05-24T23:46:56.340Z,73.70
2023-05-24T23:49:23.970Z,73.07
2023-05-24T23:51:51.490Z,73.01
2023-05-24T23:54:19.814Z,73.23
2023-05-24T23:56:47.535Z,73.48
2023-05-24T23:59:16.842Z,73.90
